createdAt,value
2023-05-09T00:03:00.904Z,0.80
2023-05-09T00:08:02.470Z,0.40
2023-05-09T00:13:04.153Z,0.93
2023-05-09T00:18:06.068Z,0.57
2023-05-09T00:23:07.738Z,0.73
2023-05-09T00:28:09.513Z,0.60
2023-05-09T00:33:11.393Z,1.10
2023-05-09T00:38:13.677Z,0.75
2023-05-09T00:43:16.816Z,0.65
2023-05-09T00:48:21.439Z,0.52
2023-05-09T00:53:24.589Z,0.38
2023-05-09T00:58:26.572Z,0.77
2023-05-09T01:03:28.190Z,1.15
2023-05-09T01:08:38.834Z,0.50
2023-05-09T01:14:04.511Z,0.77
2023-05-09T01:19:51.180Z,0.52
2023-05-09T01:25:10.279Z,0.88
2023-05-09T01:30:15.385Z,0.75
2023-05-09T01:35:18.284Z,0.77
2023-05-09T01:40:21.607Z,1.00
2023-05-09T01:45:24.909Z,0.20
2023-05-09T01:50:27.379Z,1.23
2023-05-09T01:55:34.176Z,0.35
2023-05-09T02:00:36.917Z,0.73
2023-05-09T02:05:42.899Z,1.25
2023-05-09T02:10:44.718Z,2.45
2023-05-09T02:15:47.320Z,2.58
2023-05-09T02:20:48.964Z,1.42
2023-05-09T02:25:50.939Z,1.50
2023-05-09T02:30:54.599Z,2.53
2023-05-09T02:35:57.261Z,1.45
2023-05-09T02:40:58.935Z,1.40
2023-05-09T02:46:01.641Z,1.42
2023-05-09T02:51:03.406Z,2.92
2023-05-09T02:56:05.422Z,2.35
2023-05-09T03:01:07.075Z,1.40
2023-05-09T03:06:08.776Z,1.02
2023-05-09T03:11:10.468Z,2.13
2023-05-09T03:16:14.700Z,2.85
2023-05-09T03:21:17.261Z,2.13
2023-05-09T03:26:18.903Z,1.98
2023-05-09T03:31:20.487Z,2.72
2023-05-09T03:36:23.247Z,1.70
2023-05-09T03:41:25.574Z,2.67
2023-05-09T03:46:27.267Z,2.33
2023-05-09T03:51:30.782Z,2.53
2023-05-09T03:56:33.790Z,1.88
2023-05-09T04:01:36.889Z,1.77
2023-05-09T04:06:39.629Z,0.80
2023-05-09T04:11:43.965Z,1.75
2023-05-09T04:16:48.442Z,3.67
2023-05-09T04:21:50.004Z,0.90
2023-05-09T04:26:52.238Z,2.13
2023-05-09T04:31:56.876Z,1.08
2023-05-09T04:37:01.173Z,1.88
2023-05-09T04:42:04.348Z,2.78
2023-05-09T04:47:06.083Z,2.17
2023-05-09T04:52:08.588Z,1.65
2023-05-09T04:57:17.863Z,1.45
2023-05-09T05:02:25.139Z,2.45
2023-05-09T05:07:27.822Z,0.77
2023-05-09T05:12:29.461Z,1.30
2023-05-09T05:17:31.659Z,1.98
2023-05-09T05:22:36.405Z,3.17
2023-05-09T05:27:38.140Z,2.58
2023-05-09T05:32:40.700Z,1.33
2023-05-09T05:37:43.720Z,4.38
2023-05-09T05:42:46.834Z,2.28
2023-05-09T05:47:49.014Z,2.55
2023-05-09T05:52:51.417Z,3.42
2023-05-09T05:57:54.177Z,2.08
2023-05-09T06:02:58.967Z,1.75
2023-05-09T06:08:07.226Z,3.13
2023-05-09T06:13:08.838Z,2.03
2023-05-09T06:18:13.617Z,1.83
2023-05-09T06:23:15.286Z,2.13
2023-05-09T06:28:16.875Z,1.83
2023-05-09T06:33:18.369Z,1.13
2023-05-09T06:38:20.038Z,1.30
2023-05-09T06:43:21.574Z,1.67
2023-05-09T06:48:24.117Z,1.10
2023-05-09T06:53:25.685Z,1.20
2023-05-09T06:58:28.315Z,1.90
2023-05-09T07:03:30.452Z,1.65
2023-05-09T07:08:32.077Z,1.17
2023-05-09T07:13:33.596Z,1.85
2023-05-09T07:18:37.532Z,2.47
2023-05-09T07:23:39.088Z,2.25
2023-05-09T07:28:40.685Z,1.85
2023-05-09T07:33:42.509Z,1.70
2023-05-09T07:38:44.073Z,2.28
2023-05-09T07:43:45.712Z,1.23
2023-05-09T07:48:47.410Z,0.82
2023-05-09T07:53:49.042Z,1.23
2023-05-09T07:58:50.680Z,1.90
2023-05-09T08:03:52.408Z,2.95
2023-05-09T08:08:54.148Z,1.65
2023-05-09T08:13:55.984Z,2.00
2023-05-09T08:18:58.113Z,1.42
2023-05-09T08:24:00.987Z,2.05
2023-05-09T08:29:03.341Z,2.45
2023-05-09T08:34:05.309Z,1.45
2023-05-09T08:39:07.409Z,1.25
2023-05-09T08:44:10.287Z,3.03
2023-05-09T08:49:12.428Z,1.80
2023-05-09T08:54:15.569Z,3.78
2023-05-09T08:59:18.916Z,1.52
2023-05-09T09:04:20.840Z,1.02
2023-05-09T09:09:23.842Z,1.83
2023-05-09T09:14:28.675Z,1.25
2023-05-09T09:19:35.621Z,0.95
2023-05-09T09:24:37.820Z,1.50
2023-05-09T09:29:39.774Z,1.10
2023-05-09T09:34:41.565Z,1.00
2023-05-09T09:39:54.840Z,0.32
2023-05-09T09:44:57.666Z,0.88
2023-05-09T09:50:12.150Z,0.77
2023-05-09T09:55:14.053Z,1.13
2023-05-09T10:00:18.219Z,0.95
2023-05-09T10:05:34.914Z,0.32
2023-05-09T10:10:41.137Z,1.65
2023-05-09T10:15:53.035Z,1.10
2023-05-09T10:21:04.010Z,0.75
2023-05-09T10:26:23.604Z,0.73
2023-05-09T10:36:28.965Z,0.88
2023-05-09T10:41:31.504Z,1.67
2023-05-09T10:46:33.862Z,0.93
2023-05-09T10:51:35.712Z,0.75
2023-05-09T10:56:38.691Z,0.63
2023-05-09T11:01:40.370Z,1.45
2023-05-09T11:06:42.493Z,0.57
2023-05-09T11:12:07.909Z,0.68
2023-05-09T11:17:23.700Z,1.00
2023-05-09T11:22:30.770Z,0.52
2023-05-09T11:27:45.475Z,0.85
2023-05-09T11:32:47.195Z,0.60
2023-05-09T11:37:48.849Z,1.55
2023-05-09T11:42:58.073Z,0.82
2023-05-09T11:48:01.186Z,0.98
2023-05-09T11:53:02.988Z,0.82
2023-05-09T11:58:07.267Z,1.52
2023-05-09T12:03:09.034Z,1.05
2023-05-09T12:08:10.669Z,1.75
2023-05-09T12:13:13.220Z,0.82
2023-05-09T12:18:18.314Z,0.80
2023-05-09T12:23:20.109Z,0.70
2023-05-09T12:28:25.895Z,1.00
2023-05-09T12:33:27.740Z,0.93
2023-05-09T12:38:29.379Z,0.93
2023-05-09T12:43:35.858Z,0.40
2023-05-09T12:48:39.100Z,0.45
2023-05-09T12:53:41.512Z,0.50
2023-05-09T12:58:51.647Z,0.57
2023-05-09T13:04:02.900Z,0.30
2023-05-09T13:09:08.634Z,0.38
2023-05-09T13:14:10.411Z,0.47
2023-05-09T13:19:12.614Z,0.65
2023-05-09T13:24:14.185Z,0.45
2023-05-09T13:29:17.059Z,0.50
2023-05-09T13:34:18.563Z,0.63
2023-05-09T13:39:20.460Z,0.20
2023-05-09T13:44:23.650Z,0.22
2023-05-09T13:49:25.437Z,0.20
2023-05-09T13:54:29.495Z,0.52
2023-05-09T13:59:32.332Z,0.20
2023-05-09T14:04:34.418Z,0.08
2023-05-09T14:09:40.387Z,0.32
2023-05-09T14:14:42.319Z,0.17
2023-05-09T14:19:44.088Z,0.32
2023-05-09T14:24:45.863Z,0.15
2023-05-09T14:29:49.393Z,0.00
2023-05-09T14:34:51.259Z,0.05
2023-05-09T14:39:53.024Z,0.00
2023-05-09T14:44:54.724Z,0.20
2023-05-09T14:49:56.828Z,0.22
2023-05-09T14:54:59.776Z,0.10
2023-05-09T15:00:12.620Z,0.22
2023-05-09T15:05:18.755Z,0.20
2023-05-09T15:10:20.933Z,0.13
2023-05-09T15:15:24.175Z,0.25
2023-05-09T15:20:25.781Z,0.00
2023-05-09T15:25:27.685Z,0.00
2023-05-09T15:30:29.431Z,0.00
2023-05-09T15:35:31.501Z,0.15
2023-05-09T15:40:33.163Z,0.00
2023-05-09T15:45:34.812Z,0.10
2023-05-09T15:50:36.688Z,0.10
2023-05-09T15:55:38.420Z,0.05
2023-05-09T16:00:40.124Z,0.00
2023-05-09T16:05:41.947Z,0.10
2023-05-09T16:10:43.842Z,0.08
2023-05-09T16:15:47.845Z,0.00
2023-05-09T16:20:49.625Z,0.03
2023-05-09T16:25:51.610Z,0.05
2023-05-09T16:30:53.824Z,0.00
2023-05-09T16:35:57.178Z,0.15
2023-05-09T16:40:58.724Z,0.00
2023-05-09T16:46:00.774Z,0.17
2023-05-09T16:51:02.475Z,0.40
2023-05-09T16:56:06.129Z,0.00
2023-05-09T17:01:07.834Z,0.00
2023-05-09T17:06:10.364Z,0.00
2023-05-09T17:11:12.130Z,0.52
2023-05-09T17:16:14.290Z,0.52
2023-05-09T17:21:17.029Z,0.05
2023-05-09T17:26:18.712Z,0.25
2023-05-09T17:31:20.628Z,0.73
2023-05-09T17:36:22.285Z,0.00
2023-05-09T17:41:24.012Z,0.20
2023-05-09T17:46:25.874Z,0.63
2023-05-09T17:51:27.429Z,0.00
2023-05-09T17:56:28.934Z,0.35
2023-05-09T18:01:30.502Z,0.20
2023-05-09T18:06:32.321Z,0.00
2023-05-09T18:11:34.463Z,0.28
2023-05-09T18:16:36.268Z,0.28
2023-05-09T18:21:38.710Z,0.08
2023-05-09T18:26:40.369Z,0.00
2023-05-09T18:31:41.989Z,0.10
2023-05-09T18:36:45.820Z,0.08
2023-05-09T18:41:47.386Z,0.10
2023-05-09T18:46:49.166Z,0.03
2023-05-09T18:51:50.790Z,0.05
2023-05-09T18:56:53.198Z,0.20
2023-05-09T19:01:54.779Z,0.00
2023-05-09T19:06:56.816Z,0.00
2023-05-09T19:12:00.610Z,0.00
2023-05-09T19:17:02.255Z,0.00
2023-05-09T19:22:04.221Z,0.10
2023-05-09T19:27:07.556Z,0.00
2023-05-09T19:32:09.188Z,0.30
2023-05-09T19:37:10.994Z,0.13
2023-05-09T19:42:12.593Z,0.10
2023-05-09T19:47:14.120Z,0.30
2023-05-09T19:52:15.724Z,0.25
2023-05-09T19:57:17.649Z,0.17
2023-05-09T20:02:19.180Z,0.50
2023-05-09T20:12:40.102Z,0.17
2023-05-09T20:17:41.934Z,0.00
2023-05-09T20:22:43.799Z,0.25
2023-05-09T20:27:45.591Z,0.10
2023-05-09T20:32:47.345Z,0.25
2023-05-09T20:37:49.010Z,0.25
2023-05-09T20:42:51.132Z,0.40
2023-05-09T20:47:52.864Z,0.65
2023-05-09T20:52:54.502Z,0.40
2023-05-09T20:57:56.177Z,0.17
2023-05-09T21:02:58.807Z,0.40
2023-05-09T21:08:00.617Z,0.30
2023-05-09T21:13:02.278Z,0.20
2023-05-09T21:18:04.241Z,0.20
2023-05-09T21:23:06.041Z,0.00
2023-05-09T21:28:07.718Z,0.13
2023-05-09T21:33:09.450Z,0.30
2023-05-09T21:38:11.531Z,0.20
2023-05-09T21:43:13.745Z,0.47
2023-05-09T21:48:15.484Z,0.30
2023-05-09T21:53:19.691Z,0.00
2023-05-09T21:58:21.276Z,0.75
2023-05-09T22:03:23.285Z,0.28
2023-05-09T22:08:24.835Z,1.02
2023-05-09T22:13:28.635Z,0.32
2023-05-09T22:18:31.074Z,0.43
2023-05-09T22:23:32.793Z,0.47
2023-05-09T22:28:34.290Z,0.15
2023-05-09T22:33:36.248Z,0.50
2023-05-09T22:38:37.699Z,0.68
2023-05-09T22:43:39.911Z,0.82
2023-05-09T22:48:41.530Z,0.15
2023-05-09T22:53:43.097Z,0.80
2023-05-09T22:58:44.670Z,0.40
2023-05-09T23:03:46.295Z,0.50
2023-05-09T23:08:50.921Z,0.10
2023-05-09T23:13:52.659Z,0.10
2023-05-09T23:18:54.233Z,0.35
2023-05-09T23:23:55.756Z,0.25
2023-05-09T23:28:57.278Z,0.10
2023-05-09T23:33:58.904Z,0.10
2023-05-09T23:39:00.603Z,0.10
2023-05-09T23:44:03.443Z,0.28
2023-05-09T23:49:05.043Z,0.22
2023-05-09T23:54:07.579Z,0.00
2023-05-09T23:59:09.244Z,0.00
